AirNav   Bose Proflight Series 2 Wireless viation Headset
 
 1167 users online  

24CA Mesa Heliport
Pasadena, California, USA

GOING TO PASADENA?


FAA INFORMATION EFFECTIVE 10 OCTOBER 2019

Location

FAA Identifier: 24CA
Lat/Long: 34-12-20.4800N 118-10-25.3500W
34-12.341333N 118-10.422500W
34.2056889,-118.1737083
(estimated)
Elevation: 1520 ft. / 463 m (estimated)
Variation: 14E (1985)
From city: 4 miles N of PASADENA, CA
Time zone: UTC -7 (UTC -8 during Standard Time)
Zip code: 91011

Heliport Operations

Heliport use: Private use. Permission required prior to landing
Activation date: 03/1981
Control tower: no
ARTCC: LOS ANGELES CENTER
FSS: HAWTHORNE FLIGHT SERVICE STATION
Attendance: UNATNDD
Wind indicator: yes
Segmented circle: no

Heliport Communications

WX ASOS at BUR (9 nm W): PHONE 818-841-1384
WX AWOS-3PT at EMT (10 nm SE): 118.75 ((626) 444-1107)
WX AWOS-3PT at WHP (12 nm W): 132.1 (818-899-9820)
WX ASOS at VNY (16 nm W): PHONE 818-904-9213
WX ASOS at SMO (18 nm SW): PHONE 310-392-6453
WX ASOS at HHR (19 nm SW): PHONE 310-973-8930
WX AWOS-3PT at CPM (19 nm S): 127.150 (310-631-4958)
WX ASOS at LAX (20 nm SW): PHONE 310-568-1486

Nearby radio navigation aids

VOR radial/distance  VOR name  Freq  Var
VNYr079/15.8VAN NUYS VOR/DME113.1015E
SMOr035/18.3SANTA MONICA VOR/DME110.8015E
POMr277/20.7POMONA VORTAC110.4015E
LAXr023/20.8LOS ANGELES VORTAC113.6015E
SLIr332/26.0SEAL BEACH VORTAC115.7015E
PMDr177/26.1PALMDALE VORTAC114.5015E
LHSr130/34.9LAKE HUGHES VORTAC114.3515E
FIMr089/36.2FILLMORE VORTAC112.5015E
PDZr283/36.3PARADISE VORTAC112.2015E
ELBr311/38.7EL TORO VOR/DME117.2014E
RALr279/(39.0)RIVERSIDE VOR112.4014E

Heliport Services

Runway Information

Helipad H1

Dimensions: 50 x 50 ft. / 15 x 15 m
Surface: asphalt
Latitude: 34-12.341333N
Longitude: 118-10.422500W
Elevation: 1520.0 ft.
Traffic pattern: leftleft

Heliport Ownership and Management from official FAA records

Ownership: Publicly-owned
Owner: NASA/CA. INSTITUTE OF TECH
4800 OAK GROVE DRIVE
PASADENA, CA 91109
JET PROPULSION LABORATORY.
Manager: WILLIAM MICHAEL
4800 OAK GROVE DRIVE;180-300
PASADENA, CA 91109
Phone (818) 354-4091

Additional Remarks

A52-H1 STORAGE BLDG 35' SW OF PAD.
EMERG USE ONLY, PRIOR PERMISSION REQUIRED
FOR CD CTC LOS ANGELES ARTCC AT 661-575-2079.

Instrument Procedures

There are no published instrument procedures at 24CA.

Some nearby airports with instrument procedures:

KBUR - Bob Hope Airport (9 nm W)
KEMT - San Gabriel Valley Airport (10 nm SE)
KWHP - Whiteman Airport (12 nm W)
KVNY - Van Nuys Airport (16 nm W)
KSMO - Santa Monica Municipal Airport (18 nm SW)
KHHR - Jack Northrop Field/Hawthorne Municipal Airport (19 nm SW)
KLAX - Los Angeles International Airport (20 nm SW)
 
Loc | Ops | Rwys | IFR | FBO | Links
Com | Nav | Svcs | Stats | Notes

San Bernardino International Airport Authority
 
Area around 24CA (Mesa Heliport)
 
Road maps at: MapQuest Bing Google
 
Aerial photo
No photo
 
Sectional chart

 
Airport distance calculator
Flying to Mesa Heliport? Find the distance to fly.

From to 24CA

Sunrise and sunset
Times for 21-Oct-2019
 Local
(UTC-7)
 Zulu
(UTC)
Morning civil twilight06:3913:39
Sunrise07:0414:04
Sunset18:1101:11
Evening civil twilight18:3601:36

Current date and time
Zulu (UTC)  21-Oct-2019 21:56:05
Local (UTC-7)  21-Oct-2019 14:56:05
 
METAR
KBUR 
10nm W 
212053Z VRB03KT 10SM CLR 32/00 A2999 RMK AO2 SLP140 T03220000 58016 $
KCQT 
10nm S 
212052Z AUTO VRB03KT 10SM CLR 33/02 A2996 RMK AO2 SLP142 T03280017 58014
KEMT 
11nm SE 
202345Z 20005KT 10SM CLR 32/04 A2984
KWHP 
12nm W 
212055Z 00000KT 10SM SKC 31/00 A3003
KVNY 
15nm W 
212051Z 00000KT 10SM CLR 33/00 A2999 RMK AO2 SLP144 T03330000 58015
KSMO 
18nm SW 
212051Z 25006KT 10SM CLR 30/04 A2998 RMK AO2 SLP150 T03000044 58011
KHHR 
19nm SW 
212053Z 26007KT 10SM CLR 33/02 A2997 RMK AO2 SLP148 T03280017 58015 $
KLAX 
19nm SW 
212053Z 26011KT 10SM SCT050 31/06 A2997 RMK AO2 SLP148 FU SCT050 T03060056 58012 $
TAF
KBUR 
10nm W 
211725Z 2118/2218 00000KT P6SM SKC FM212100 17007KT P6SM SKC FM220200 VRB03KT P6SM SKC FM221600 32004KT P6SM SKC
KVNY 
15nm W 
211725Z 2118/2218 34006KT P6SM SKC FM212000 03007KT P6SM SKC FM220300 36006KT P6SM SKC FM221600 36012KT P6SM SKC
KSMO 
18nm SW 
211725Z 2118/2218 00000KT P6SM SKC FM212000 24008KT P6SM SKC FM220200 VRB03KT P6SM SKC FM221400 04006KT P6SM SKC
KLAX 
19nm SW 
211725Z 2118/2224 VRB03KT P6SM SKC FM212000 26012KT P6SM SKC FM220400 VRB03KT P6SM SKC FM221500 04005KT P6SM SKC FM221800 26006KT P6SM SKC FM222100 26010KT P6SM SKC
NOTAMs
Click for the latest NOTAMs
NOTAMs are issued by the DoD/FAA and will open in a separate window not controlled by AirNav.

 

 
 

Would you like to see your business listed on this page?

 If your business provides an interesting product or service to pilots, flight crews, aircraft, or users of the Mesa Heliport, you should consider listing it here.  To start the listing process, click on the button below
 
Add a business
 

Other Pages about Mesa Heliport

Update a link
 
Copyright © AirNav, LLC. All rights reserved. Privacy Policy  Contact